createdAt,value
2017-04-10T00:02:32.669Z,959.26
2017-04-10T00:08:28.021Z,959.25
2017-04-10T00:09:38.129Z,959.24
2017-04-10T00:10:33.077Z,959.23
2017-04-10T00:11:33.145Z,959.23
2017-04-10T00:14:34.359Z,959.15
2017-04-10T00:18:33.013Z,959.18
2017-04-10T00:19:28.093Z,959.15
2017-04-10T00:21:27.917Z,959.12
2017-04-10T00:22:38.095Z,959.14
2017-04-10T00:24:27.634Z,959.10
2017-04-10T00:25:32.765Z,959.06
2017-04-10T00:26:32.883Z,959.10
2017-04-10T00:27:32.933Z,959.11
2017-04-10T00:28:28.100Z,959.06
2017-04-10T00:29:35.095Z,959.07
2017-04-10T00:30:33.091Z,959.04
2017-04-10T00:33:33.094Z,959.02
2017-04-10T00:34:35.095Z,959.00
2017-04-10T00:35:33.015Z,959.00
2017-04-10T00:37:39.267Z,958.97
2017-04-10T00:39:35.095Z,958.94
2017-04-10T00:41:33.102Z,958.92
2017-04-10T00:42:28.070Z,958.89
2017-04-10T00:43:32.449Z,958.91
2017-04-10T00:44:33.113Z,958.91
2017-04-10T00:45:33.109Z,958.96
2017-04-10T00:46:28.104Z,958.92
2017-04-10T00:50:32.778Z,958.84
2017-04-10T00:51:29.781Z,958.80
2017-04-10T00:52:32.463Z,958.84
2017-04-10T01:02:22.170Z,958.78
2017-04-10T01:03:32.478Z,958.79
2017-04-10T01:04:36.495Z,958.75
2017-04-10T01:05:29.636Z,958.79
2017-04-10T01:06:33.448Z,958.79
2017-04-10T01:07:32.486Z,958.75
2017-04-10T01:11:28.477Z,958.77
2017-04-10T01:12:32.410Z,958.78
2017-04-10T01:14:27.975Z,958.77
2017-04-10T01:18:32.951Z,958.69
2017-04-10T01:21:37.805Z,958.74
2017-04-10T01:23:33.431Z,958.70
2017-04-10T01:25:40.287Z,958.72
2017-04-10T01:26:32.390Z,958.69
2017-04-10T01:27:33.388Z,958.67
2017-04-10T01:28:37.700Z,958.67
2017-04-10T01:29:33.483Z,958.66
2017-04-10T01:30:30.297Z,958.69
2017-04-10T01:31:34.388Z,958.67
2017-04-10T01:32:38.201Z,958.66
2017-04-10T01:33:32.790Z,958.62
2017-04-10T01:34:34.449Z,958.65
2017-04-10T01:36:27.888Z,958.59
2017-04-10T01:37:28.044Z,958.62
2017-04-10T01:39:29.481Z,958.59
2017-04-10T01:44:27.732Z,958.55
2017-04-10T01:45:32.832Z,958.53
2017-04-10T01:46:27.820Z,958.52
2017-04-10T01:47:32.482Z,958.53
2017-04-10T01:49:45.031Z,958.54
2017-04-10T01:51:33.257Z,958.50
2017-04-10T01:53:29.481Z,958.48
2017-04-10T01:54:32.484Z,958.46
2017-04-10T02:00:33.142Z,958.43
2017-04-10T02:01:33.244Z,958.40
2017-04-10T02:03:32.798Z,958.40
2017-04-10T02:06:32.479Z,958.37
2017-04-10T02:07:32.904Z,958.38
2017-04-10T02:09:35.004Z,958.39
2017-04-10T02:10:39.278Z,958.36
2017-04-10T02:11:32.278Z,958.39
2017-04-10T02:12:33.288Z,958.38
2017-04-10T02:13:38.469Z,958.38
2017-04-10T02:14:32.479Z,958.36
2017-04-10T02:15:32.337Z,958.38
2017-04-10T02:16:51.224Z,958.41
2017-04-10T02:17:32.476Z,958.35
2017-04-10T02:18:32.480Z,958.31
2017-04-10T02:19:39.919Z,958.35
2017-04-10T02:20:34.602Z,958.39
2017-04-10T02:21:47.476Z,958.34
2017-04-10T02:22:32.481Z,958.33
2017-04-10T02:24:32.696Z,958.33
2017-04-10T02:28:32.723Z,958.30
2017-04-10T02:30:32.688Z,958.37
2017-04-10T02:31:32.724Z,958.32
2017-04-10T02:38:38.500Z,958.25
2017-04-10T02:40:32.952Z,958.27
2017-04-10T02:42:38.047Z,958.21
2017-04-10T02:43:33.829Z,958.22
2017-04-10T02:44:34.475Z,958.21
2017-04-10T02:45:33.036Z,958.22
2017-04-10T02:46:39.889Z,958.20
2017-04-10T02:47:34.773Z,958.24
2017-04-10T02:48:32.530Z,958.20
2017-04-10T02:49:29.755Z,958.17
2017-04-10T02:54:32.924Z,958.14
2017-04-10T02:57:33.237Z,958.10
2017-04-10T02:59:32.471Z,958.09
2017-04-10T03:01:28.253Z,958.07
2017-04-10T03:02:32.347Z,958.03
2017-04-10T03:04:33.021Z,958.08
2017-04-10T03:06:33.009Z,958.02
2017-04-10T03:09:29.345Z,957.99
2017-04-10T03:10:37.598Z,957.96
2017-04-10T03:12:35.298Z,958.00
2017-04-10T03:13:32.708Z,957.95
2017-04-10T03:15:29.302Z,957.96
2017-04-10T03:16:37.296Z,957.94
2017-04-10T03:17:32.300Z,957.98
2017-04-10T03:19:28.298Z,957.91
2017-04-10T03:20:28.078Z,957.90
2017-04-10T03:22:33.304Z,957.93
2017-04-10T03:23:33.314Z,957.92
2017-04-10T03:24:33.321Z,957.94
2017-04-10T03:25:32.320Z,957.92
2017-04-10T03:26:32.459Z,957.95
2017-04-10T03:27:32.474Z,957.92
2017-04-10T03:28:29.313Z,957.92
2017-04-10T03:32:27.565Z,957.95
2017-04-10T03:33:32.471Z,957.93
2017-04-10T03:34:38.096Z,958.01
2017-04-10T03:35:38.210Z,957.96
2017-04-10T03:36:33.816Z,957.99
2017-04-10T03:37:33.323Z,958.01
2017-04-10T03:43:38.341Z,957.97
2017-04-10T03:47:32.443Z,957.94
2017-04-10T03:48:32.340Z,957.91
2017-04-10T03:49:34.334Z,957.90
2017-04-10T03:51:39.057Z,957.91
2017-04-10T03:52:32.885Z,957.89
2017-04-10T03:53:44.182Z,957.88
2017-04-10T03:54:28.343Z,957.92
2017-04-10T04:00:39.342Z,957.87
2017-04-10T04:11:32.460Z,957.85
2017-04-10T04:22:32.960Z,957.89
2017-04-10T04:26:32.690Z,957.90
2017-04-10T04:27:34.529Z,957.89
2017-04-10T04:28:34.624Z,957.90
2017-04-10T04:29:29.386Z,957.90
2017-04-10T04:30:33.140Z,957.91
2017-04-10T04:31:33.155Z,957.89
2017-04-10T04:32:35.150Z,957.89
2017-04-10T04:33:32.287Z,957.87
2017-04-10T04:34:27.462Z,957.91
2017-04-10T04:36:32.066Z,957.92
2017-04-10T04:37:32.976Z,957.90
2017-04-10T04:38:35.149Z,957.89
2017-04-10T04:39:32.801Z,957.91
2017-04-10T04:41:32.397Z,957.89
2017-04-10T04:43:24.685Z,957.89
2017-04-10T04:48:28.883Z,957.96
2017-04-10T04:49:33.846Z,957.98
2017-04-10T05:02:32.397Z,957.97
2017-04-10T05:03:32.216Z,957.99
2017-04-10T05:08:42.405Z,958.01
2017-04-10T05:09:42.446Z,958.00
2017-04-10T05:10:32.443Z,957.99
2017-04-10T05:11:32.448Z,958.01
2017-04-10T05:12:33.240Z,957.99
2017-04-10T05:13:32.458Z,957.99
2017-04-10T05:16:29.915Z,958.01
2017-04-10T05:20:38.020Z,958.00
2017-04-10T05:21:33.246Z,958.03
2017-04-10T05:42:32.691Z,957.94
2017-04-10T05:57:28.060Z,957.88
2017-04-10T06:01:33.323Z,957.87
2017-04-10T06:02:33.325Z,957.87
2017-04-10T06:03:32.323Z,957.89
2017-04-10T06:06:32.668Z,957.84
2017-04-10T06:09:33.027Z,957.87
2017-04-10T06:10:32.599Z,957.84
2017-04-10T06:11:32.345Z,957.80
2017-04-10T06:12:32.348Z,957.79
2017-04-10T06:13:32.464Z,957.84
2017-04-10T06:17:32.357Z,957.83
2017-04-10T06:18:32.465Z,957.87
2017-04-10T06:19:34.458Z,957.83
2017-04-10T06:21:33.068Z,957.85
2017-04-10T06:23:32.898Z,957.74
2017-04-10T06:24:33.009Z,957.80
2017-04-10T06:27:32.888Z,957.85
2017-04-10T06:28:32.998Z,957.78
2017-04-10T06:29:32.562Z,957.78
2017-04-10T06:31:33.783Z,957.80
2017-04-10T06:32:33.375Z,957.79
2017-04-10T06:33:32.374Z,957.78
2017-04-10T06:34:32.374Z,957.82
2017-04-10T06:36:27.590Z,957.78
2017-04-10T06:37:32.512Z,957.81
2017-04-10T06:38:32.376Z,957.73
2017-04-10T06:40:33.390Z,957.71
2017-04-10T06:42:33.126Z,957.74
2017-04-10T06:48:33.148Z,957.69
2017-04-10T06:50:33.468Z,957.74
2017-04-10T06:51:32.943Z,957.68
2017-04-10T06:52:33.018Z,957.72
2017-04-10T06:53:32.923Z,957.73
2017-04-10T06:54:27.892Z,957.72
2017-04-10T06:55:34.304Z,957.71
2017-04-10T06:57:33.243Z,957.75
2017-04-10T06:58:32.092Z,957.71
2017-04-10T07:01:28.338Z,957.72
2017-04-10T07:04:32.765Z,957.71
2017-04-10T09:50:46.473Z,957.44
2017-04-10T10:34:32.559Z,957.00
2017-04-10T10:40:00.869Z,956.89
2017-04-10T11:04:34.379Z,956.71
2017-04-10T11:42:15.082Z,956.27
2017-04-10T11:46:54.408Z,956.29
2017-04-10T11:48:42.612Z,956.30
2017-04-10T12:00:54.028Z,956.09
2017-04-10T12:24:33.138Z,955.87
2017-04-10T12:41:36.222Z,955.69
2017-04-10T12:45:45.265Z,955.70
2017-04-10T12:47:42.762Z,955.60
2017-04-10T12:48:34.843Z,955.62
2017-04-10T12:53:40.235Z,955.60
2017-04-10T13:01:40.954Z,955.52
2017-04-10T13:03:34.750Z,955.63
2017-04-10T13:07:33.371Z,955.48
2017-04-10T13:10:48.333Z,955.41
2017-04-10T13:11:32.368Z,955.40
2017-04-10T13:12:33.571Z,955.41
2017-04-10T13:18:34.202Z,955.39
2017-04-10T13:19:33.557Z,955.26
2017-04-10T13:20:33.843Z,955.37
2017-04-10T13:21:35.640Z,955.22
2017-04-10T13:22:43.520Z,955.26
2017-04-10T13:23:33.648Z,955.32
2017-04-10T13:24:33.770Z,955.24
2017-04-10T13:25:57.488Z,955.29
2017-04-10T13:26:45.159Z,955.26
2017-04-10T13:27:52.448Z,955.17
2017-04-10T13:28:34.546Z,955.25
2017-04-10T13:29:33.646Z,955.18
2017-04-10T13:30:34.203Z,955.16
2017-04-10T13:32:52.000Z,955.11
2017-04-10T13:33:34.245Z,955.12
2017-04-10T13:34:34.369Z,955.15
2017-04-10T13:35:45.465Z,955.05
2017-04-10T13:36:41.110Z,955.14
2017-04-10T13:37:28.920Z,955.05
2017-04-10T13:38:30.015Z,954.96
2017-04-10T13:39:39.383Z,955.05
2017-04-10T13:40:33.366Z,955.00
2017-04-10T13:41:34.458Z,954.98
2017-04-10T13:42:34.565Z,954.93
2017-04-10T13:43:40.162Z,954.93
2017-04-10T13:44:34.569Z,954.92
2017-04-10T13:45:34.158Z,954.85
2017-04-10T13:46:34.562Z,954.89
2017-04-10T13:47:34.436Z,954.93
2017-04-10T13:48:32.469Z,954.86
2017-04-10T13:49:34.345Z,954.84
2017-04-10T13:50:34.465Z,954.75
2017-04-10T13:51:27.690Z,954.90
2017-04-10T13:52:34.482Z,954.81
2017-04-10T13:53:34.546Z,954.80
2017-04-10T13:54:34.261Z,954.82
2017-04-10T13:55:34.596Z,954.81
2017-04-10T13:56:34.456Z,954.84
2017-04-10T13:57:38.688Z,954.88
2017-04-10T13:58:39.608Z,954.83
2017-04-10T13:59:34.458Z,954.79
2017-04-10T14:00:34.462Z,954.81
2017-04-10T14:01:34.580Z,954.84
2017-04-10T14:02:24.784Z,954.84
2017-04-10T14:03:39.721Z,954.78
2017-04-10T14:04:34.732Z,954.84
2017-04-10T14:05:34.854Z,954.79
2017-04-10T14:06:33.269Z,954.76
2017-04-10T14:07:34.298Z,954.77
2017-04-10T14:08:34.192Z,954.63
2017-04-10T14:09:39.468Z,954.65
2017-04-10T14:10:34.415Z,954.74
2017-04-10T14:11:34.375Z,954.62
2017-04-10T14:12:34.570Z,954.62
2017-04-10T14:13:32.477Z,954.73
2017-04-10T14:14:34.880Z,954.61
2017-04-10T14:15:35.107Z,954.60
2017-04-10T14:16:32.288Z,954.60
2017-04-10T14:18:40.674Z,954.59
2017-04-10T14:19:44.945Z,954.52
2017-04-10T14:20:40.294Z,954.59
2017-04-10T14:21:33.421Z,954.50
2017-04-10T14:22:40.203Z,954.58
2017-04-10T14:23:34.999Z,954.61
2017-04-10T14:24:39.929Z,954.61
2017-04-10T14:25:34.271Z,954.59
2017-04-10T14:26:34.093Z,954.58
2017-04-10T14:27:34.656Z,954.51
2017-04-10T14:28:32.580Z,954.61
2017-04-10T14:31:34.278Z,954.42
2017-04-10T14:32:29.466Z,954.46
2017-04-10T14:34:34.342Z,954.37
2017-04-10T14:36:34.858Z,954.45
2017-04-10T14:37:38.807Z,954.41
2017-04-10T14:38:35.008Z,954.37
2017-04-10T14:39:40.309Z,954.41
2017-04-10T14:41:35.553Z,954.43
2017-04-10T14:44:35.259Z,954.40
2017-04-10T14:45:35.109Z,954.39
2017-04-10T14:46:39.363Z,954.41
2017-04-10T14:47:33.469Z,954.35
2017-04-10T14:48:32.553Z,954.35
2017-04-10T14:49:32.511Z,954.35
2017-04-10T14:50:22.585Z,954.31
2017-04-10T14:51:30.068Z,954.30
2017-04-10T14:52:35.073Z,954.31
2017-04-10T14:53:33.889Z,954.28
2017-04-10T14:54:35.068Z,954.27
2017-04-10T14:55:35.311Z,954.23
2017-04-10T14:56:35.064Z,954.24
2017-04-10T14:57:29.786Z,954.23
2017-04-10T14:58:22.338Z,954.29
2017-04-10T14:59:30.067Z,954.21
2017-04-10T15:00:30.764Z,954.25
2017-04-10T15:01:35.778Z,954.22
2017-04-10T15:02:34.777Z,954.20
2017-04-10T15:03:34.854Z,954.18
2017-04-10T15:04:29.814Z,954.21
2017-04-10T15:05:34.872Z,954.17
2017-04-10T15:06:32.678Z,954.21
2017-04-10T15:07:34.855Z,954.11
2017-04-10T15:08:30.091Z,954.11
2017-04-10T15:09:32.944Z,954.12
2017-04-10T15:10:35.143Z,954.18
2017-04-10T15:11:38.461Z,954.15
2017-04-10T15:12:32.466Z,954.06
2017-04-10T15:13:32.463Z,954.09
2017-04-10T15:14:39.458Z,954.15
2017-04-10T15:15:32.467Z,954.10
2017-04-10T15:16:39.464Z,954.11
2017-04-10T15:17:22.846Z,954.03
2017-04-10T15:18:35.113Z,954.07
2017-04-10T15:20:34.055Z,954.10
2017-04-10T15:21:35.575Z,954.11
2017-04-10T15:22:22.699Z,954.06
2017-04-10T15:23:27.622Z,954.06
2017-04-10T15:24:35.453Z,954.06
2017-04-10T15:25:39.605Z,954.12
2017-04-10T15:26:28.547Z,954.09
2017-04-10T15:27:33.564Z,954.06
2017-04-10T15:29:34.995Z,954.21
2017-04-10T15:33:32.543Z,954.15
2017-04-10T15:39:44.379Z,954.11
2017-04-10T15:40:34.824Z,954.07
2017-04-10T15:41:28.869Z,954.08
2017-04-10T15:42:33.995Z,954.06
2017-04-10T15:43:37.412Z,954.12
2017-04-10T15:45:37.865Z,954.01
2017-04-10T15:46:33.927Z,953.99
2017-04-10T15:47:44.161Z,953.98
2017-04-10T15:51:33.363Z,954.19
2017-04-10T15:54:19.913Z,954.20
2017-04-10T15:55:35.959Z,954.28
2017-04-10T15:56:35.051Z,954.34
2017-04-10T15:57:35.042Z,954.27
2017-04-10T16:00:34.391Z,954.23
2017-04-10T16:07:44.177Z,954.27
2017-04-10T16:08:32.292Z,954.28
2017-04-10T16:09:35.266Z,954.27
2017-04-10T16:12:34.801Z,954.31
2017-04-10T16:14:39.491Z,954.40
2017-04-10T16:15:29.484Z,954.27
2017-04-10T16:17:33.720Z,954.34
2017-04-10T16:19:34.207Z,954.28
2017-04-10T16:20:39.826Z,954.35
2017-04-10T16:21:33.028Z,954.24
2017-04-10T16:22:40.465Z,954.24
2017-04-10T16:23:32.586Z,954.20
2017-04-10T16:24:32.456Z,954.22
2017-04-10T16:25:41.279Z,954.17
2017-04-10T16:26:32.463Z,954.20
2017-04-10T16:27:34.459Z,954.22
2017-04-10T16:28:32.466Z,954.22
2017-04-10T16:29:35.528Z,954.21
2017-04-10T16:30:35.034Z,954.26
2017-04-10T16:31:33.058Z,954.28
2017-04-10T16:32:33.165Z,954.26
2017-04-10T16:33:32.725Z,954.30
2017-04-10T16:34:32.469Z,954.29
2017-04-10T16:35:32.595Z,954.25
2017-04-10T16:36:22.942Z,954.28
2017-04-10T16:37:33.481Z,954.31
2017-04-10T16:38:33.469Z,954.32
2017-04-10T16:39:38.135Z,954.36
2017-04-10T16:40:35.213Z,954.41
2017-04-10T16:41:32.200Z,954.48
2017-04-10T16:42:44.809Z,954.47
2017-04-10T16:43:40.154Z,954.48
2017-04-10T16:44:40.862Z,954.45
2017-04-10T16:45:33.202Z,954.45
2017-04-10T16:46:35.530Z,954.43
2017-04-10T16:47:35.479Z,954.49
2017-04-10T16:48:32.471Z,954.42
2017-04-10T16:49:35.325Z,954.37
2017-04-10T16:50:15.703Z,954.43
2017-04-10T16:51:15.507Z,954.52
2017-04-10T16:52:15.316Z,954.49
2017-04-10T16:53:34.482Z,954.47
2017-04-10T16:54:32.470Z,954.48
2017-04-10T16:55:33.904Z,954.45
2017-04-10T16:56:34.873Z,954.51
2017-04-10T16:57:22.947Z,954.50
2017-04-10T16:58:34.877Z,954.49
2017-04-10T16:59:34.865Z,954.48
2017-04-10T17:00:32.753Z,954.41
2017-04-10T17:01:29.828Z,954.42
2017-04-10T17:04:33.012Z,954.45
2017-04-10T17:05:33.840Z,954.49
2017-04-10T17:06:27.616Z,954.45
2017-04-10T17:07:35.843Z,954.48
2017-04-10T17:08:38.630Z,954.45
2017-04-10T17:09:46.528Z,954.43
2017-04-10T17:10:23.017Z,954.46
2017-04-10T17:11:29.171Z,954.44
2017-04-10T17:12:43.664Z,954.43
2017-04-10T17:13:39.625Z,954.48
2017-04-10T17:14:34.485Z,954.53
2017-04-10T17:15:32.341Z,954.57
2017-04-10T17:16:34.711Z,954.55
2017-04-10T17:17:33.472Z,954.66
2017-04-10T17:20:32.856Z,954.57
2017-04-10T17:21:34.075Z,954.46
2017-04-10T17:22:39.473Z,954.39
2017-04-10T17:23:40.219Z,954.48
2017-04-10T17:25:35.481Z,954.37
2017-04-10T17:26:33.472Z,954.36
2017-04-10T17:28:21.763Z,954.20
2017-04-10T17:29:33.604Z,954.22
2017-04-10T17:30:33.473Z,954.24
2017-04-10T17:31:29.163Z,954.16
2017-04-10T17:34:32.813Z,954.06
2017-04-10T17:35:32.679Z,954.05
2017-04-10T17:37:29.680Z,954.04
2017-04-10T17:38:22.987Z,954.02
2017-04-10T17:39:33.288Z,954.01
2017-04-10T17:40:34.361Z,954.03
2017-04-10T17:41:40.802Z,954.00
2017-04-10T17:42:23.037Z,953.97
2017-04-10T17:44:33.113Z,953.93
2017-04-10T17:45:39.464Z,953.94
2017-04-10T17:46:22.460Z,953.97
2017-04-10T17:48:31.742Z,953.88
2017-04-10T17:49:41.886Z,953.92
2017-04-10T18:00:35.569Z,953.90
2017-04-10T18:03:28.205Z,953.94
2017-04-10T18:04:28.800Z,953.87
2017-04-10T18:05:23.804Z,953.93
2017-04-10T18:06:35.048Z,953.91
2017-04-10T18:07:35.647Z,953.89
2017-04-10T18:09:38.449Z,953.93
2017-04-10T18:10:32.457Z,953.94
2017-04-10T18:11:34.528Z,953.95
2017-04-10T18:12:33.729Z,953.93
2017-04-10T18:13:33.836Z,953.95
2017-04-10T18:14:32.858Z,953.97
2017-04-10T18:15:37.896Z,953.96
2017-04-10T18:16:27.878Z,953.99
2017-04-10T18:17:34.886Z,954.01
2017-04-10T18:18:32.457Z,954.06
2017-04-10T18:19:22.644Z,954.06
2017-04-10T18:20:34.262Z,954.08
2017-04-10T18:21:35.295Z,954.07
2017-04-10T18:22:49.663Z,954.11
2017-04-10T18:23:28.185Z,954.10
2017-04-10T18:24:33.458Z,954.10
2017-04-10T18:25:29.933Z,954.13
2017-04-10T18:26:39.159Z,954.14
2017-04-10T18:28:30.455Z,954.09
2017-04-10T18:29:32.295Z,954.10
2017-04-10T18:30:28.091Z,954.07
2017-04-10T18:31:32.919Z,954.15
2017-04-10T18:32:39.148Z,954.10
2017-04-10T18:33:37.205Z,954.10
2017-04-10T18:34:38.634Z,954.09
2017-04-10T18:36:35.009Z,954.11
2017-04-10T18:37:39.449Z,954.07
2017-04-10T18:38:34.900Z,954.10
2017-04-10T18:39:34.905Z,954.08
2017-04-10T18:41:35.461Z,954.09
2017-04-10T18:42:34.277Z,954.10
2017-04-10T18:43:35.872Z,954.08
2017-04-10T18:45:32.449Z,954.06
2017-04-10T18:46:34.903Z,954.05
2017-04-10T18:47:32.890Z,954.06
2017-04-10T18:48:34.590Z,954.05
2017-04-10T18:49:39.899Z,954.06
2017-04-10T18:50:28.051Z,954.09
2017-04-10T18:51:34.898Z,954.04
2017-04-10T18:52:39.056Z,954.11
2017-04-10T18:53:43.934Z,954.10
2017-04-10T18:55:29.226Z,954.10
2017-04-10T18:56:28.411Z,954.09
2017-04-10T18:57:33.440Z,954.10
2017-04-10T18:58:33.027Z,954.13
2017-04-10T18:59:34.297Z,954.07
2017-04-10T19:00:29.467Z,954.06
2017-04-10T19:02:34.191Z,954.08
2017-04-10T19:03:33.519Z,954.05
2017-04-10T19:05:33.832Z,954.05
2017-04-10T19:06:42.452Z,954.06
2017-04-10T19:07:22.855Z,954.07
2017-04-10T19:08:35.030Z,954.09
2017-04-10T19:11:33.033Z,954.10
2017-04-10T19:12:42.963Z,954.11
2017-04-10T19:13:34.308Z,954.07
2017-04-10T19:14:28.433Z,954.09
2017-04-10T19:15:28.181Z,954.08
2017-04-10T19:16:33.636Z,954.12
2017-04-10T19:17:53.976Z,954.10
2017-04-10T19:19:22.954Z,954.10
2017-04-10T19:20:24.338Z,954.11
2017-04-10T19:27:00.369Z,954.00
2017-04-10T19:31:34.154Z,954.03
2017-04-10T19:33:39.627Z,953.99
2017-04-10T19:35:34.025Z,953.98
2017-04-10T19:36:26.763Z,953.99
2017-04-10T19:37:22.451Z,953.97
2017-04-10T19:45:31.426Z,953.90
2017-04-10T19:49:33.044Z,953.99
2017-04-10T19:54:33.857Z,954.19
2017-04-10T19:55:38.145Z,954.20
2017-04-10T19:56:29.187Z,954.29
2017-04-10T19:57:34.054Z,954.29
2017-04-10T19:59:33.354Z,954.27
2017-04-10T20:00:33.309Z,954.27
2017-04-10T20:02:34.820Z,954.26
2017-04-10T20:03:33.244Z,954.29
2017-04-10T20:04:29.319Z,954.39
2017-04-10T20:05:30.999Z,954.48
2017-04-10T20:06:27.887Z,954.67
2017-04-10T20:07:32.872Z,954.75
2017-04-10T20:08:34.679Z,954.83
2017-04-10T20:09:33.319Z,954.83
2017-04-10T20:10:28.633Z,954.88
2017-04-10T20:11:35.386Z,954.84
2017-04-10T20:12:42.207Z,954.91
2017-04-10T20:16:33.833Z,954.78
2017-04-10T20:17:33.001Z,954.92
2017-04-10T20:20:38.134Z,954.82
2017-04-10T20:22:34.147Z,954.85
2017-04-10T20:30:33.481Z,955.05
2017-04-10T20:31:33.650Z,955.11
2017-04-10T20:36:29.689Z,954.97
2017-04-10T20:37:31.911Z,954.94
2017-04-10T20:39:37.861Z,954.92
2017-04-10T20:40:33.449Z,954.88
2017-04-10T20:41:38.229Z,954.83
2017-04-10T20:42:33.504Z,954.83
2017-04-10T20:43:33.457Z,954.84
2017-04-10T20:44:33.451Z,954.87
2017-04-10T20:48:20.314Z,954.69
2017-04-10T20:51:25.201Z,954.57
2017-04-10T20:52:41.122Z,954.62
2017-04-10T20:53:34.818Z,954.66
2017-04-10T20:54:34.448Z,954.76
2017-04-10T20:55:33.436Z,954.89
2017-04-10T20:57:41.322Z,955.06
2017-04-10T20:58:33.448Z,955.08
2017-04-10T21:00:34.473Z,954.95
2017-04-10T21:01:32.450Z,954.95
2017-04-10T21:03:32.930Z,955.00
2017-04-10T21:05:38.511Z,955.05
2017-04-10T21:06:32.648Z,955.07
2017-04-10T21:09:34.545Z,955.12
2017-04-10T21:13:34.094Z,955.15
2017-04-10T21:14:36.453Z,955.18
2017-04-10T21:15:34.445Z,955.19
2017-04-10T21:16:39.225Z,955.23
2017-04-10T21:17:39.447Z,955.20
2017-04-10T21:18:33.449Z,955.28
2017-04-10T21:22:40.450Z,955.43
2017-04-10T21:23:33.581Z,955.50
2017-04-10T21:24:34.303Z,955.51
2017-04-10T21:25:29.438Z,955.61
2017-04-10T21:26:40.454Z,955.61
2017-04-10T21:27:33.405Z,955.66
2017-04-10T21:29:30.188Z,955.67
2017-04-10T21:30:32.814Z,955.73
2017-04-10T21:31:24.751Z,955.74
2017-04-10T21:32:42.114Z,955.71
2017-04-10T21:33:29.421Z,955.76
2017-04-10T21:36:38.737Z,955.86
2017-04-10T21:37:34.601Z,955.88
2017-04-10T21:38:41.742Z,955.93
2017-04-10T21:44:38.462Z,956.22
2017-04-10T21:45:34.622Z,956.26
2017-04-10T21:46:34.735Z,956.30
2017-04-10T21:47:38.376Z,956.29
2017-04-10T21:48:33.623Z,956.37
2017-04-10T21:49:32.458Z,956.33
2017-04-10T21:50:32.404Z,956.38
2017-04-10T21:51:38.699Z,956.45
2017-04-10T21:52:40.021Z,956.47
2017-04-10T21:53:38.524Z,956.56
2017-04-10T21:54:34.796Z,956.49
2017-04-10T21:56:38.335Z,956.54
2017-04-10T21:57:34.631Z,956.49
2017-04-10T21:58:38.344Z,956.55
2017-04-10T21:59:39.464Z,956.48
2017-04-10T22:01:33.644Z,956.45
2017-04-10T22:02:33.146Z,956.57
2017-04-10T22:03:28.647Z,956.50
2017-04-10T22:04:34.482Z,956.52
2017-04-10T22:05:39.665Z,956.56
2017-04-10T22:06:34.652Z,956.62
2017-04-10T22:07:33.838Z,956.67
2017-04-10T22:09:33.664Z,956.73
2017-04-10T22:10:39.875Z,956.73
2017-04-10T22:11:33.266Z,956.79
2017-04-10T22:12:39.469Z,956.81
2017-04-10T22:13:33.650Z,956.83
2017-04-10T22:14:39.879Z,956.87
2017-04-10T22:16:33.635Z,957.04
2017-04-10T22:17:36.099Z,957.03
2017-04-10T22:18:32.857Z,957.03
2017-04-10T22:19:34.659Z,957.08
2017-04-10T22:20:39.903Z,957.08
2017-04-10T22:21:32.904Z,957.08
2017-04-10T22:22:32.899Z,957.17
2017-04-10T22:23:39.797Z,957.09
2017-04-10T22:24:33.924Z,957.18
2017-04-10T22:25:39.465Z,957.14
2017-04-10T22:26:29.284Z,957.19
2017-04-10T22:27:39.456Z,957.17
2017-04-10T22:28:39.558Z,957.20
2017-04-10T22:29:33.689Z,957.18
2017-04-10T22:30:38.456Z,957.19
2017-04-10T22:31:34.727Z,957.22
2017-04-10T22:32:39.904Z,957.22
2017-04-10T22:33:39.901Z,957.20
2017-04-10T22:34:40.005Z,957.10
2017-04-10T22:36:33.714Z,956.94
2017-04-10T22:37:22.566Z,956.79
2017-04-10T22:38:33.108Z,956.75
2017-04-10T22:39:34.736Z,956.84
2017-04-10T22:40:33.742Z,956.78
2017-04-10T22:41:39.921Z,956.80
2017-04-10T22:42:39.882Z,956.74
2017-04-10T22:43:39.670Z,956.77
2017-04-10T22:44:39.749Z,956.69
2017-04-10T22:45:33.746Z,956.68
2017-04-10T22:46:39.752Z,956.68
2017-04-10T22:47:33.932Z,956.72
2017-04-10T22:48:33.966Z,956.67
2017-04-10T22:49:40.748Z,956.71
2017-04-10T22:51:33.754Z,956.73
2017-04-10T22:52:45.754Z,956.72
2017-04-10T22:53:30.022Z,956.70
2017-04-10T22:54:33.755Z,956.65
2017-04-10T22:55:33.766Z,956.66
2017-04-10T22:56:29.955Z,956.70
2017-04-10T22:57:35.263Z,956.67
2017-04-10T22:58:34.043Z,956.67
2017-04-10T23:00:42.767Z,956.73
2017-04-10T23:01:39.883Z,956.69
2017-04-10T23:02:33.871Z,956.70
2017-04-10T23:03:39.720Z,956.70
2017-04-10T23:04:43.576Z,956.71
2017-04-10T23:05:39.967Z,956.76
2017-04-10T23:06:39.900Z,956.71
2017-04-10T23:07:35.363Z,956.75
2017-04-10T23:09:34.798Z,956.76
2017-04-10T23:11:39.106Z,956.81
2017-04-10T23:12:35.225Z,956.82
2017-04-10T23:13:32.708Z,956.83
2017-04-10T23:14:32.613Z,956.83
2017-04-10T23:15:34.109Z,956.87
2017-04-10T23:16:34.888Z,956.86
2017-04-10T23:17:28.411Z,956.87
2017-04-10T23:19:34.783Z,956.87
2017-04-10T23:20:32.859Z,956.86
2017-04-10T23:21:40.878Z,956.92
2017-04-10T23:22:32.879Z,956.85
2017-04-10T23:23:38.333Z,956.89
2017-04-10T23:24:32.560Z,956.92
2017-04-10T23:25:40.171Z,956.92
2017-04-10T23:26:34.049Z,956.90
2017-04-10T23:27:34.159Z,956.98
2017-04-10T23:28:40.437Z,956.97
2017-04-10T23:30:29.206Z,956.95
2017-04-10T23:31:33.490Z,956.96
2017-04-10T23:32:33.318Z,956.95
2017-04-10T23:33:40.474Z,956.98
2017-04-10T23:35:32.843Z,956.99
2017-04-10T23:37:33.540Z,957.04
2017-04-10T23:38:41.697Z,957.04
2017-04-10T23:39:40.704Z,957.02
2017-04-10T23:40:34.855Z,957.03
2017-04-10T23:41:40.019Z,956.97
2017-04-10T23:42:34.019Z,957.05
2017-04-10T23:44:22.836Z,957.03
2017-04-10T23:45:24.659Z,957.02
2017-04-10T23:46:33.728Z,956.97
2017-04-10T23:47:34.703Z,957.00
2017-04-10T23:48:33.861Z,957.03
2017-04-10T23:49:34.611Z,957.01
2017-04-10T23:50:35.117Z,956.99
2017-04-10T23:51:33.125Z,957.01
2017-04-10T23:52:40.139Z,956.96
2017-04-10T23:53:35.174Z,956.94
2017-04-10T23:54:35.177Z,956.92
2017-04-10T23:55:34.176Z,956.98
2017-04-10T23:56:39.461Z,957.03
2017-04-10T23:57:40.169Z,957.03
2017-04-10T23:58:30.407Z,957.02
2017-04-10T23:59:39.616Z,957.01
